sensor_id;sensor_type;location;lat;lon;timestamp;P1;durP1;ratioP1;P2;durP2;ratioP2
51915;SDS011;37942;53.218;6.548;2022-08-21T00:01:03;12.77;;;5.05;;
51915;SDS011;37942;53.218;6.548;2022-08-21T00:03:31;15.60;;;6.05;;
51915;SDS011;37942;53.218;6.548;2022-08-21T00:05:57;13.75;;;5.30;;
51915;SDS011;37942;53.218;6.548;2022-08-21T00:10:50;19.95;;;6.15;;
51915;SDS011;37942;53.218;6.548;2022-08-21T00:13:17;14.82;;;5.80;;
51915;SDS011;37942;53.218;6.548;2022-08-21T00:15:44;16.50;;;5.43;;
51915;SDS011;37942;53.218;6.548;2022-08-21T00:20:36;15.48;;;5.80;;
51915;SDS011;37942;53.218;6.548;2022-08-21T00:23:02;14.68;;;5.38;;
51915;SDS011;37942;53.218;6.548;2022-08-21T00:25:28;14.07;;;5.45;;
51915;SDS011;37942;53.218;6.548;2022-08-21T00:27:54;14.23;;;6.25;;
51915;SDS011;37942;53.218;6.548;2022-08-21T00:30:22;15.98;;;6.15;;
51915;SDS011;37942;53.218;6.548;2022-08-21T00:32:52;12.93;;;5.90;;
51915;SDS011;37942;53.218;6.548;2022-08-21T00:35:20;14.82;;;6.18;;
51915;SDS011;37942;53.218;6.548;2022-08-21T00:37:47;19.00;;;6.25;;
51915;SDS011;37942;53.218;6.548;2022-08-21T00:40:14;16.30;;;6.20;;
51915;SDS011;37942;53.218;6.548;2022-08-21T00:42:40;17.50;;;6.85;;
51915;SDS011;37942;53.218;6.548;2022-08-21T00:45:06;17.52;;;5.75;;
51915;SDS011;37942;53.218;6.548;2022-08-21T00:47:33;16.42;;;6.40;;
51915;SDS011;37942;53.218;6.548;2022-08-21T00:50:04;14.88;;;5.90;;
51915;SDS011;37942;53.218;6.548;2022-08-21T00:52:31;17.55;;;6.65;;
51915;SDS011;37942;53.218;6.548;2022-08-21T00:54:58;15.90;;;5.82;;
51915;SDS011;37942;53.218;6.548;2022-08-21T00:57:29;13.15;;;5.55;;
51915;SDS011;37942;53.218;6.548;2022-08-21T00:59:57;20.58;;;5.70;;
51915;SDS011;37942;53.218;6.548;2022-08-21T01:02:24;13.50;;;6.35;;
51915;SDS011;37942;53.218;6.548;2022-08-21T01:04:50;13.65;;;5.90;;
51915;SDS011;37942;53.218;6.548;2022-08-21T01:07:16;15.38;;;6.10;;
51915;SDS011;37942;53.218;6.548;2022-08-21T01:09:43;13.43;;;5.70;;
51915;SDS011;37942;53.218;6.548;2022-08-21T01:12:09;17.00;;;6.35;;
51915;SDS011;37942;53.218;6.548;2022-08-21T01:14:36;17.85;;;6.38;;
51915;SDS011;37942;53.218;6.548;2022-08-21T01:17:03;16.98;;;5.80;;
51915;SDS011;37942;53.218;6.548;2022-08-21T01:19:30;17.02;;;5.80;;
51915;SDS011;37942;53.218;6.548;2022-08-21T01:21:56;14.70;;;6.32;;
51915;SDS011;37942;53.218;6.548;2022-08-21T01:26:48;17.90;;;6.20;;
51915;SDS011;37942;53.218;6.548;2022-08-21T01:31:41;19.33;;;6.80;;
51915;SDS011;37942;53.218;6.548;2022-08-21T01:36:33;18.17;;;6.70;;
51915;SDS011;37942;53.218;6.548;2022-08-21T01:38:59;16.38;;;6.80;;
51915;SDS011;37942;53.218;6.548;2022-08-21T01:43:51;14.88;;;6.57;;
51915;SDS011;37942;53.218;6.548;2022-08-21T01:46:18;16.45;;;6.03;;
51915;SDS011;37942;53.218;6.548;2022-08-21T01:48:44;15.80;;;6.53;;
51915;SDS011;37942;53.218;6.548;2022-08-21T01:51:10;16.35;;;6.57;;
51915;SDS011;37942;53.218;6.548;2022-08-21T01:56:04;16.37;;;6.83;;
51915;SDS011;37942;53.218;6.548;2022-08-21T01:58:31;14.25;;;6.57;;
51915;SDS011;37942;53.218;6.548;2022-08-21T02:00:58;18.88;;;6.45;;
51915;SDS011;37942;53.218;6.548;2022-08-21T02:03:24;17.50;;;6.75;;
51915;SDS011;37942;53.218;6.548;2022-08-21T02:08:16;20.85;;;7.50;;
51915;SDS011;37942;53.218;6.548;2022-08-21T02:10:42;19.83;;;6.38;;
51915;SDS011;37942;53.218;6.548;2022-08-21T02:13:08;13.82;;;6.82;;
51915;SDS011;37942;53.218;6.548;2022-08-21T02:15:34;16.88;;;6.55;;
51915;SDS011;37942;53.218;6.548;2022-08-21T02:18:01;17.70;;;6.88;;
51915;SDS011;37942;53.218;6.548;2022-08-21T02:20:35;21.33;;;7.85;;
51915;SDS011;37942;53.218;6.548;2022-08-21T02:23:02;17.15;;;7.57;;
51915;SDS011;37942;53.218;6.548;2022-08-21T02:25:29;16.90;;;7.53;;
51915;SDS011;37942;53.218;6.548;2022-08-21T02:27:55;17.23;;;6.82;;
51915;SDS011;37942;53.218;6.548;2022-08-21T02:30:33;17.20;;;7.32;;
51915;SDS011;37942;53.218;6.548;2022-08-21T02:32:59;19.75;;;7.35;;
51915;SDS011;37942;53.218;6.548;2022-08-21T02:35:26;18.40;;;7.60;;
51915;SDS011;37942;53.218;6.548;2022-08-21T02:37:53;19.90;;;7.72;;
51915;SDS011;37942;53.218;6.548;2022-08-21T02:40:22;17.30;;;7.93;;
51915;SDS011;37942;53.218;6.548;2022-08-21T02:42:48;18.63;;;8.73;;
51915;SDS011;37942;53.218;6.548;2022-08-21T02:45:18;22.70;;;8.82;;
51915;SDS011;37942;53.218;6.548;2022-08-21T02:47:51;21.10;;;7.70;;
51915;SDS011;37942;53.218;6.548;2022-08-21T02:50:22;17.33;;;7.90;;
51915;SDS011;37942;53.218;6.548;2022-08-21T02:52:48;15.18;;;7.35;;
51915;SDS011;37942;53.218;6.548;2022-08-21T02:55:14;21.80;;;7.63;;
51915;SDS011;37942;53.218;6.548;2022-08-21T02:57:41;18.60;;;7.88;;
51915;SDS011;37942;53.218;6.548;2022-08-21T03:00:07;15.55;;;7.50;;
51915;SDS011;37942;53.218;6.548;2022-08-21T03:02:35;18.60;;;7.80;;
51915;SDS011;37942;53.218;6.548;2022-08-21T03:05:02;18.63;;;7.53;;
51915;SDS011;37942;53.218;6.548;2022-08-21T03:07:28;17.33;;;8.15;;
51915;SDS011;37942;53.218;6.548;2022-08-21T03:09:55;19.35;;;7.75;;
51915;SDS011;37942;53.218;6.548;2022-08-21T03:12:21;20.48;;;8.32;;
51915;SDS011;37942;53.218;6.548;2022-08-21T03:14:47;20.23;;;9.05;;
51915;SDS011;37942;53.218;6.548;2022-08-21T03:17:13;22.30;;;8.07;;
51915;SDS011;37942;53.218;6.548;2022-08-21T03:19:39;15.32;;;7.57;;
51915;SDS011;37942;53.218;6.548;2022-08-21T03:22:05;18.15;;;8.23;;
51915;SDS011;37942;53.218;6.548;2022-08-21T03:24:31;17.70;;;7.82;;
51915;SDS011;37942;53.218;6.548;2022-08-21T03:26:57;15.07;;;7.82;;
51915;SDS011;37942;53.218;6.548;2022-08-21T03:29:24;18.85;;;7.55;;
51915;SDS011;37942;53.218;6.548;2022-08-21T03:34:19;20.35;;;8.38;;
51915;SDS011;37942;53.218;6.548;2022-08-21T03:36:45;18.77;;;8.15;;
51915;SDS011;37942;53.218;6.548;2022-08-21T03:39:11;17.15;;;7.85;;
51915;SDS011;37942;53.218;6.548;2022-08-21T03:41:37;21.98;;;8.60;;
51915;SDS011;37942;53.218;6.548;2022-08-21T03:44:03;17.85;;;8.35;;
51915;SDS011;37942;53.218;6.548;2022-08-21T03:46:29;19.58;;;8.48;;
51915;SDS011;37942;53.218;6.548;2022-08-21T03:48:55;15.43;;;8.15;;
51915;SDS011;37942;53.218;6.548;2022-08-21T03:51:21;21.30;;;8.65;;
51915;SDS011;37942;53.218;6.548;2022-08-21T03:53:47;18.73;;;9.23;;
51915;SDS011;37942;53.218;6.548;2022-08-21T03:56:14;17.10;;;8.00;;
51915;SDS011;37942;53.218;6.548;2022-08-21T03:58:41;17.50;;;8.25;;
51915;SDS011;37942;53.218;6.548;2022-08-21T04:01:07;14.63;;;7.72;;
51915;SDS011;37942;53.218;6.548;2022-08-21T04:03:35;19.23;;;7.95;;
51915;SDS011;37942;53.218;6.548;2022-08-21T04:06:01;17.95;;;9.32;;
51915;SDS011;37942;53.218;6.548;2022-08-21T04:08:27;19.88;;;9.20;;
51915;SDS011;37942;53.218;6.548;2022-08-21T04:10:55;18.77;;;8.98;;
51915;SDS011;37942;53.218;6.548;2022-08-21T04:13:23;19.98;;;9.45;;
51915;SDS011;37942;53.218;6.548;2022-08-21T04:15:49;19.15;;;8.85;;
51915;SDS011;37942;53.218;6.548;2022-08-21T04:18:15;18.55;;;8.63;;
51915;SDS011;37942;53.218;6.548;2022-08-21T04:20:42;16.25;;;7.90;;
51915;SDS011;37942;53.218;6.548;2022-08-21T04:23:08;21.45;;;9.05;;
51915;SDS011;37942;53.218;6.548;2022-08-21T04:25:35;16.25;;;8.15;;
51915;SDS011;37942;53.218;6.548;2022-08-21T04:28:01;19.20;;;9.05;;
51915;SDS011;37942;53.218;6.548;2022-08-21T04:30:27;19.27;;;9.00;;
51915;SDS011;37942;53.218;6.548;2022-08-21T04:35:20;17.75;;;8.60;;
51915;SDS011;37942;53.218;6.548;2022-08-21T04:37:47;21.38;;;9.10;;
51915;SDS011;37942;53.218;6.548;2022-08-21T04:40:14;21.17;;;9.07;;
51915;SDS011;37942;53.218;6.548;2022-08-21T04:42:44;16.15;;;8.20;;
51915;SDS011;37942;53.218;6.548;2022-08-21T04:47:50;17.88;;;8.48;;
51915;SDS011;37942;53.218;6.548;2022-08-21T04:50:16;18.02;;;8.68;;
51915;SDS011;37942;53.218;6.548;2022-08-21T04:52:42;21.20;;;8.90;;
51915;SDS011;37942;53.218;6.548;2022-08-21T04:55:09;17.73;;;8.25;;
51915;SDS011;37942;53.218;6.548;2022-08-21T04:57:35;18.52;;;9.15;;
51915;SDS011;37942;53.218;6.548;2022-08-21T05:00:02;17.67;;;8.23;;
51915;SDS011;37942;53.218;6.548;2022-08-21T05:02:29;19.48;;;8.63;;
51915;SDS011;37942;53.218;6.548;2022-08-21T05:04:58;18.75;;;8.55;;
51915;SDS011;37942;53.218;6.548;2022-08-21T05:09:50;18.65;;;8.35;;
51915;SDS011;37942;53.218;6.548;2022-08-21T05:12:16;18.17;;;8.73;;
51915;SDS011;37942;53.218;6.548;2022-08-21T05:17:09;21.02;;;8.80;;
51915;SDS011;37942;53.218;6.548;2022-08-21T05:19:36;18.70;;;8.35;;
51915;SDS011;37942;53.218;6.548;2022-08-21T05:22:02;17.50;;;8.50;;
51915;SDS011;37942;53.218;6.548;2022-08-21T05:24:32;18.58;;;8.32;;
51915;SDS011;37942;53.218;6.548;2022-08-21T05:26:58;18.05;;;8.85;;
51915;SDS011;37942;53.218;6.548;2022-08-21T05:31:50;19.77;;;7.72;;
51915;SDS011;37942;53.218;6.548;2022-08-21T05:34:21;18.83;;;8.30;;
51915;SDS011;37942;53.218;6.548;2022-08-21T05:36:48;22.15;;;8.27;;
51915;SDS011;37942;53.218;6.548;2022-08-21T05:41:40;17.58;;;7.65;;
51915;SDS011;37942;53.218;6.548;2022-08-21T05:44:06;21.85;;;7.82;;
51915;SDS011;37942;53.218;6.548;2022-08-21T05:46:32;15.38;;;8.00;;
51915;SDS011;37942;53.218;6.548;2022-08-21T05:48:58;17.23;;;7.20;;
51915;SDS011;37942;53.218;6.548;2022-08-21T05:51:24;15.55;;;7.75;;
51915;SDS011;37942;53.218;6.548;2022-08-21T05:53:50;19.50;;;7.70;;
51915;SDS011;37942;53.218;6.548;2022-08-21T05:56:16;16.98;;;7.60;;
51915;SDS011;37942;53.218;6.548;2022-08-21T05:58:42;21.95;;;7.88;;
51915;SDS011;37942;53.218;6.548;2022-08-21T06:01:08;18.52;;;7.22;;
51915;SDS011;37942;53.218;6.548;2022-08-21T06:03:39;18.63;;;7.57;;
51915;SDS011;37942;53.218;6.548;2022-08-21T06:06:05;16.00;;;7.30;;
51915;SDS011;37942;53.218;6.548;2022-08-21T06:10:59;19.02;;;7.57;;
51915;SDS011;37942;53.218;6.548;2022-08-21T06:13:25;18.80;;;7.32;;
51915;SDS011;37942;53.218;6.548;2022-08-21T06:16:02;19.85;;;8.07;;
51915;SDS011;37942;53.218;6.548;2022-08-21T06:18:28;19.23;;;7.63;;
51915;SDS011;37942;53.218;6.548;2022-08-21T06:23:21;17.15;;;6.93;;
51915;SDS011;37942;53.218;6.548;2022-08-21T06:25:47;19.40;;;7.80;;
51915;SDS011;37942;53.218;6.548;2022-08-21T06:28:13;19.13;;;7.43;;
51915;SDS011;37942;53.218;6.548;2022-08-21T06:30:39;17.08;;;6.78;;
51915;SDS011;37942;53.218;6.548;2022-08-21T06:33:06;18.90;;;7.10;;
51915;SDS011;37942;53.218;6.548;2022-08-21T06:35:35;19.90;;;6.82;;
51915;SDS011;37942;53.218;6.548;2022-08-21T06:38:01;19.48;;;7.47;;
51915;SDS011;37942;53.218;6.548;2022-08-21T06:40:27;16.15;;;6.97;;
51915;SDS011;37942;53.218;6.548;2022-08-21T06:45:20;22.02;;;6.90;;
51915;SDS011;37942;53.218;6.548;2022-08-21T06:47:46;16.55;;;6.95;;
51915;SDS011;37942;53.218;6.548;2022-08-21T06:50:12;17.48;;;6.60;;
51915;SDS011;37942;53.218;6.548;2022-08-21T06:55:05;16.05;;;6.55;;
51915;SDS011;37942;53.218;6.548;2022-08-21T06:57:31;18.73;;;5.47;;
51915;SDS011;37942;53.218;6.548;2022-08-21T06:59:57;16.90;;;6.03;;
51915;SDS011;37942;53.218;6.548;2022-08-21T07:04:49;22.02;;;5.97;;
51915;SDS011;37942;53.218;6.548;2022-08-21T07:07:16;22.63;;;6.00;;
51915;SDS011;37942;53.218;6.548;2022-08-21T07:12:08;16.15;;;5.00;;
51915;SDS011;37942;53.218;6.548;2022-08-21T07:14:34;23.20;;;5.60;;
51915;SDS011;37942;53.218;6.548;2022-08-21T07:19:26;15.50;;;4.40;;
51915;SDS011;37942;53.218;6.548;2022-08-21T07:21:54;19.63;;;4.90;;
51915;SDS011;37942;53.218;6.548;2022-08-21T07:24:22;14.63;;;4.38;;
51915;SDS011;37942;53.218;6.548;2022-08-21T07:26:48;15.23;;;4.78;;
51915;SDS011;37942;53.218;6.548;2022-08-21T07:29:14;12.98;;;4.22;;
51915;SDS011;37942;53.218;6.548;2022-08-21T07:31:41;15.30;;;4.93;;
51915;SDS011;37942;53.218;6.548;2022-08-21T07:34:07;23.02;;;4.70;;
51915;SDS011;37942;53.218;6.548;2022-08-21T07:36:33;16.48;;;4.53;;
51915;SDS011;37942;53.218;6.548;2022-08-21T07:38:59;17.20;;;4.47;;
51915;SDS011;37942;53.218;6.548;2022-08-21T07:43:53;14.32;;;3.70;;
51915;SDS011;37942;53.218;6.548;2022-08-21T07:46:20;16.30;;;4.10;;
51915;SDS011;37942;53.218;6.548;2022-08-21T07:48:46;16.05;;;4.25;;
51915;SDS011;37942;53.218;6.548;2022-08-21T07:53:38;14.07;;;3.70;;
51915;SDS011;37942;53.218;6.548;2022-08-21T07:56:05;14.90;;;3.67;;
51915;SDS011;37942;53.218;6.548;2022-08-21T07:58:31;12.48;;;3.38;;
51915;SDS011;37942;53.218;6.548;2022-08-21T08:00:58;11.85;;;3.60;;
51915;SDS011;37942;53.218;6.548;2022-08-21T08:03:25;15.95;;;3.80;;
51915;SDS011;37942;53.218;6.548;2022-08-21T08:08:17;16.05;;;3.65;;
51915;SDS011;37942;53.218;6.548;2022-08-21T08:13:09;17.27;;;3.85;;
51915;SDS011;37942;53.218;6.548;2022-08-21T08:18:01;14.50;;;3.80;;
51915;SDS011;37942;53.218;6.548;2022-08-21T08:22:54;17.33;;;4.07;;
51915;SDS011;37942;53.218;6.548;2022-08-21T08:25:20;16.90;;;3.95;;
51915;SDS011;37942;53.218;6.548;2022-08-21T08:27:47;13.77;;;3.50;;
51915;SDS011;37942;53.218;6.548;2022-08-21T08:32:40;16.35;;;4.30;;
51915;SDS011;37942;53.218;6.548;2022-08-21T08:35:06;16.25;;;3.75;;
51915;SDS011;37942;53.218;6.548;2022-08-21T08:37:33;16.27;;;3.72;;
51915;SDS011;37942;53.218;6.548;2022-08-21T08:39:59;14.50;;;3.80;;
51915;SDS011;37942;53.218;6.548;2022-08-21T08:42:30;16.40;;;4.05;;
51915;SDS011;37942;53.218;6.548;2022-08-21T08:47:30;17.77;;;4.90;;
51915;SDS011;37942;53.218;6.548;2022-08-21T08:52:33;17.02;;;4.03;;
51915;SDS011;37942;53.218;6.548;2022-08-21T08:55:11;15.10;;;4.38;;
51915;SDS011;37942;53.218;6.548;2022-08-21T08:57:39;16.17;;;4.65;;
51915;SDS011;37942;53.218;6.548;2022-08-21T09:00:08;20.02;;;4.97;;
51915;SDS011;37942;53.218;6.548;2022-08-21T09:02:38;17.17;;;4.53;;
51915;SDS011;37942;53.218;6.548;2022-08-21T09:05:04;23.08;;;5.15;;
51915;SDS011;37942;53.218;6.548;2022-08-21T09:07:45;17.67;;;4.80;;
51915;SDS011;37942;53.218;6.548;2022-08-21T09:10:19;16.65;;;4.68;;
51915;SDS011;37942;53.218;6.548;2022-08-21T09:15:20;20.73;;;5.43;;
51915;SDS011;37942;53.218;6.548;2022-08-21T09:20:37;16.15;;;4.57;;
51915;SDS011;37942;53.218;6.548;2022-08-21T09:25:31;23.95;;;4.93;;
51915;SDS011;37942;53.218;6.548;2022-08-21T09:27:58;18.45;;;4.60;;
51915;SDS011;37942;53.218;6.548;2022-08-21T09:32:50;17.10;;;5.15;;
51915;SDS011;37942;53.218;6.548;2022-08-21T09:40:55;18.50;;;4.10;;
51915;SDS011;37942;53.218;6.548;2022-08-21T09:45:39;15.95;;;4.15;;
51915;SDS011;37942;53.218;6.548;2022-08-21T09:48:22;19.55;;;4.47;;
51915;SDS011;37942;53.218;6.548;2022-08-21T09:50:49;17.33;;;4.60;;
51915;SDS011;37942;53.218;6.548;2022-08-21T09:55:55;14.90;;;3.90;;
51915;SDS011;37942;53.218;6.548;2022-08-21T09:58:43;15.27;;;4.20;;
51915;SDS011;37942;53.218;6.548;2022-08-21T10:03:42;14.68;;;3.67;;
51915;SDS011;37942;53.218;6.548;2022-08-21T10:08:36;16.48;;;4.60;;
51915;SDS011;37942;53.218;6.548;2022-08-21T10:11:05;16.25;;;4.32;;
51915;SDS011;37942;53.218;6.548;2022-08-21T10:13:41;17.08;;;3.97;;
51915;SDS011;37942;53.218;6.548;2022-08-21T10:16:15;19.50;;;3.70;;
51915;SDS011;37942;53.218;6.548;2022-08-21T10:19:07;13.17;;;3.17;;
51915;SDS011;37942;53.218;6.548;2022-08-21T10:24:21;15.98;;;3.85;;
51915;SDS011;37942;53.218;6.548;2022-08-21T10:37:30;12.52;;;3.28;;
51915;SDS011;37942;53.218;6.548;2022-08-21T10:40:07;15.55;;;3.42;;
51915;SDS011;37942;53.218;6.548;2022-08-21T10:47:36;16.27;;;4.07;;
51915;SDS011;37942;53.218;6.548;2022-08-21T10:50:22;12.70;;;3.58;;
51915;SDS011;37942;53.218;6.548;2022-08-21T10:55:55;12.73;;;3.90;;
51915;SDS011;37942;53.218;6.548;2022-08-21T10:58:57;17.77;;;4.20;;
51915;SDS011;37942;53.218;6.548;2022-08-21T11:01:19;12.65;;;3.90;;
51915;SDS011;37942;53.218;6.548;2022-08-21T11:03:51;16.42;;;4.80;;
51915;SDS011;37942;53.218;6.548;2022-08-21T11:06:26;13.40;;;4.07;;
51915;SDS011;37942;53.218;6.548;2022-08-21T11:09:11;12.88;;;3.67;;
51915;SDS011;37942;53.218;6.548;2022-08-21T11:11:52;17.10;;;4.60;;
51915;SDS011;37942;53.218;6.548;2022-08-21T11:14:38;14.60;;;3.90;;
51915;SDS011;37942;53.218;6.548;2022-08-21T11:17:07;14.32;;;4.45;;
51915;SDS011;37942;53.218;6.548;2022-08-21T11:19:43;13.32;;;4.35;;
51915;SDS011;37942;53.218;6.548;2022-08-21T11:24:57;14.77;;;3.45;;
51915;SDS011;37942;53.218;6.548;2022-08-21T11:27:33;19.10;;;4.00;;
51915;SDS011;37942;53.218;6.548;2022-08-21T11:30:02;16.38;;;4.28;;
51915;SDS011;37942;53.218;6.548;2022-08-21T11:37:27;14.43;;;3.83;;
51915;SDS011;37942;53.218;6.548;2022-08-21T11:40:06;19.02;;;4.85;;
51915;SDS011;37942;53.218;6.548;2022-08-21T11:43:24;15.05;;;4.32;;
51915;SDS011;37942;53.218;6.548;2022-08-21T11:45:32;14.77;;;3.55;;
51915;SDS011;37942;53.218;6.548;2022-08-21T11:50:46;16.35;;;3.70;;
51915;SDS011;37942;53.218;6.548;2022-08-21T11:53:21;15.30;;;4.13;;
51915;SDS011;37942;53.218;6.548;2022-08-21T12:00:47;16.23;;;3.90;;
51915;SDS011;37942;53.218;6.548;2022-08-21T12:03:15;14.75;;;3.90;;
51915;SDS011;37942;53.218;6.548;2022-08-21T12:05:44;13.18;;;3.63;;
51915;SDS011;37942;53.218;6.548;2022-08-21T12:11:08;11.10;;;3.22;;
51915;SDS011;37942;53.218;6.548;2022-08-21T12:13:36;13.23;;;3.22;;
51915;SDS011;37942;53.218;6.548;2022-08-21T12:16:11;13.32;;;3.63;;
51915;SDS011;37942;53.218;6.548;2022-08-21T12:18:38;11.55;;;3.60;;
51915;SDS011;37942;53.218;6.548;2022-08-21T12:23:44;12.00;;;3.13;;
51915;SDS011;37942;53.218;6.548;2022-08-21T12:26:24;11.80;;;3.45;;
51915;SDS011;37942;53.218;6.548;2022-08-21T12:29:02;16.08;;;3.58;;
51915;SDS011;37942;53.218;6.548;2022-08-21T12:31:29;12.90;;;3.63;;
51915;SDS011;37942;53.218;6.548;2022-08-21T12:33:56;15.05;;;3.30;;
51915;SDS011;37942;53.218;6.548;2022-08-21T12:36:26;12.52;;;3.20;;
51915;SDS011;37942;53.218;6.548;2022-08-21T12:39:03;12.75;;;3.28;;
51915;SDS011;37942;53.218;6.548;2022-08-21T12:41:33;12.77;;;3.75;;
51915;SDS011;37942;53.218;6.548;2022-08-21T12:44:10;11.65;;;3.20;;
51915;SDS011;37942;53.218;6.548;2022-08-21T12:46:46;10.40;;;3.40;;
51915;SDS011;37942;53.218;6.548;2022-08-21T12:54:05;15.65;;;3.47;;
51915;SDS011;37942;53.218;6.548;2022-08-21T12:59:16;14.32;;;2.80;;
51915;SDS011;37942;53.218;6.548;2022-08-21T13:01:46;10.43;;;2.90;;
51915;SDS011;37942;53.218;6.548;2022-08-21T13:04:16;13.90;;;2.70;;
51915;SDS011;37942;53.218;6.548;2022-08-21T13:06:47;11.25;;;2.97;;
51915;SDS011;37942;53.218;6.548;2022-08-21T13:09:17;9.45;;;2.90;;
51915;SDS011;37942;53.218;6.548;2022-08-21T13:11:45;12.88;;;2.90;;
51915;SDS011;37942;53.218;6.548;2022-08-21T13:16:54;10.00;;;2.53;;
51915;SDS011;37942;53.218;6.548;2022-08-21T13:19:21;11.35;;;3.10;;
51915;SDS011;37942;53.218;6.548;2022-08-21T13:21:48;10.18;;;2.72;;
51915;SDS011;37942;53.218;6.548;2022-08-21T13:26:43;14.65;;;3.08;;
51915;SDS011;37942;53.218;6.548;2022-08-21T13:29:11;13.57;;;3.53;;
51915;SDS011;37942;53.218;6.548;2022-08-21T13:31:38;11.43;;;2.95;;
51915;SDS011;37942;53.218;6.548;2022-08-21T13:34:05;10.63;;;3.00;;
51915;SDS011;37942;53.218;6.548;2022-08-21T13:36:35;12.00;;;2.90;;
51915;SDS011;37942;53.218;6.548;2022-08-21T13:39:04;16.45;;;3.08;;
51915;SDS011;37942;53.218;6.548;2022-08-21T13:41:34;11.38;;;2.75;;
51915;SDS011;37942;53.218;6.548;2022-08-21T13:44:06;13.07;;;3.00;;
51915;SDS011;37942;53.218;6.548;2022-08-21T13:46:39;11.38;;;3.08;;
51915;SDS011;37942;53.218;6.548;2022-08-21T13:49:05;11.85;;;3.05;;
51915;SDS011;37942;53.218;6.548;2022-08-21T13:51:32;11.38;;;2.78;;
51915;SDS011;37942;53.218;6.548;2022-08-21T13:53:58;14.45;;;3.25;;
51915;SDS011;37942;53.218;6.548;2022-08-21T13:56:31;12.32;;;3.38;;
51915;SDS011;37942;53.218;6.548;2022-08-21T13:58:58;14.02;;;3.25;;
51915;SDS011;37942;53.218;6.548;2022-08-21T14:01:30;12.27;;;2.70;;
51915;SDS011;37942;53.218;6.548;2022-08-21T14:03:59;13.77;;;2.85;;
51915;SDS011;37942;53.218;6.548;2022-08-21T14:06:27;14.32;;;3.13;;
51915;SDS011;37942;53.218;6.548;2022-08-21T14:08:55;10.75;;;2.97;;
51915;SDS011;37942;53.218;6.548;2022-08-21T14:11:25;12.40;;;2.70;;
51915;SDS011;37942;53.218;6.548;2022-08-21T14:16:25;13.45;;;2.70;;
51915;SDS011;37942;53.218;6.548;2022-08-21T14:18:53;9.20;;;2.40;;
51915;SDS011;37942;53.218;6.548;2022-08-21T14:26:52;10.00;;;2.65;;
51915;SDS011;37942;53.218;6.548;2022-08-21T14:29:21;11.02;;;2.80;;
51915;SDS011;37942;53.218;6.548;2022-08-21T14:31:49;10.25;;;2.50;;
51915;SDS011;37942;53.218;6.548;2022-08-21T14:34:15;12.32;;;2.70;;
51915;SDS011;37942;53.218;6.548;2022-08-21T14:36:42;11.52;;;2.55;;
51915;SDS011;37942;53.218;6.548;2022-08-21T14:39:08;16.83;;;2.88;;
51915;SDS011;37942;53.218;6.548;2022-08-21T14:41:34;12.90;;;2.80;;
51915;SDS011;37942;53.218;6.548;2022-08-21T14:44:01;11.13;;;2.67;;
51915;SDS011;37942;53.218;6.548;2022-08-21T14:46:28;11.77;;;2.97;;
51915;SDS011;37942;53.218;6.548;2022-08-21T14:48:55;12.23;;;3.03;;
51915;SDS011;37942;53.218;6.548;2022-08-21T14:53:47;11.55;;;2.65;;
51915;SDS011;37942;53.218;6.548;2022-08-21T14:56:13;11.98;;;2.90;;
51915;SDS011;37942;53.218;6.548;2022-08-21T14:58:41;15.68;;;2.95;;
51915;SDS011;37942;53.218;6.548;2022-08-21T15:01:08;10.75;;;2.92;;
51915;SDS011;37942;53.218;6.548;2022-08-21T15:03:35;9.93;;;2.75;;
51915;SDS011;37942;53.218;6.548;2022-08-21T15:06:02;10.95;;;2.90;;
51915;SDS011;37942;53.218;6.548;2022-08-21T15:08:28;15.18;;;2.70;;
51915;SDS011;37942;53.218;6.548;2022-08-21T15:10:54;10.50;;;3.10;;
51915;SDS011;37942;53.218;6.548;2022-08-21T15:13:21;12.85;;;2.55;;
51915;SDS011;37942;53.218;6.548;2022-08-21T15:15:48;15.80;;;3.00;;
51915;SDS011;37942;53.218;6.548;2022-08-21T15:18:17;13.57;;;2.92;;
51915;SDS011;37942;53.218;6.548;2022-08-21T15:20:43;11.68;;;3.30;;
51915;SDS011;37942;53.218;6.548;2022-08-21T15:23:10;11.45;;;3.00;;
51915;SDS011;37942;53.218;6.548;2022-08-21T15:25:36;11.05;;;2.72;;
51915;SDS011;37942;53.218;6.548;2022-08-21T15:28:09;11.73;;;2.60;;
51915;SDS011;37942;53.218;6.548;2022-08-21T15:30:36;12.18;;;2.60;;
51915;SDS011;37942;53.218;6.548;2022-08-21T15:33:02;11.25;;;2.58;;
51915;SDS011;37942;53.218;6.548;2022-08-21T15:35:29;11.50;;;2.63;;
51915;SDS011;37942;53.218;6.548;2022-08-21T15:37:55;14.95;;;3.17;;
51915;SDS011;37942;53.218;6.548;2022-08-21T15:40:21;11.68;;;2.70;;
51915;SDS011;37942;53.218;6.548;2022-08-21T15:42:47;9.50;;;2.67;;
51915;SDS011;37942;53.218;6.548;2022-08-21T15:45:13;12.88;;;3.33;;
51915;SDS011;37942;53.218;6.548;2022-08-21T15:47:42;15.80;;;3.10;;
51915;SDS011;37942;53.218;6.548;2022-08-21T15:50:09;13.82;;;2.85;;
51915;SDS011;37942;53.218;6.548;2022-08-21T15:52:37;11.48;;;3.05;;
51915;SDS011;37942;53.218;6.548;2022-08-21T15:55:05;15.35;;;3.13;;
51915;SDS011;37942;53.218;6.548;2022-08-21T15:57:32;11.88;;;3.00;;
51915;SDS011;37942;53.218;6.548;2022-08-21T16:00:00;10.98;;;2.60;;
51915;SDS011;37942;53.218;6.548;2022-08-21T16:02:37;11.88;;;2.92;;
51915;SDS011;37942;53.218;6.548;2022-08-21T16:05:04;13.32;;;3.30;;
51915;SDS011;37942;53.218;6.548;2022-08-21T16:07:30;11.25;;;2.90;;
51915;SDS011;37942;53.218;6.548;2022-08-21T16:09:56;11.07;;;3.03;;
51915;SDS011;37942;53.218;6.548;2022-08-21T16:12:24;14.23;;;2.80;;
51915;SDS011;37942;53.218;6.548;2022-08-21T16:14:51;16.20;;;3.30;;
51915;SDS011;37942;53.218;6.548;2022-08-21T16:17:18;14.32;;;3.10;;
51915;SDS011;37942;53.218;6.548;2022-08-21T16:19:44;14.65;;;3.08;;
51915;SDS011;37942;53.218;6.548;2022-08-21T16:22:11;18.75;;;3.08;;
51915;SDS011;37942;53.218;6.548;2022-08-21T16:24:37;15.63;;;3.40;;
51915;SDS011;37942;53.218;6.548;2022-08-21T16:27:03;12.75;;;3.20;;
51915;SDS011;37942;53.218;6.548;2022-08-21T16:29:30;15.70;;;2.92;;
51915;SDS011;37942;53.218;6.548;2022-08-21T16:31:58;19.42;;;3.50;;
51915;SDS011;37942;53.218;6.548;2022-08-21T16:34:24;12.30;;;2.75;;
51915;SDS011;37942;53.218;6.548;2022-08-21T16:36:52;14.02;;;2.95;;
51915;SDS011;37942;53.218;6.548;2022-08-21T16:39:18;11.80;;;2.90;;
51915;SDS011;37942;53.218;6.548;2022-08-21T16:41:48;15.35;;;3.50;;
51915;SDS011;37942;53.218;6.548;2022-08-21T16:44:17;16.15;;;3.40;;
51915;SDS011;37942;53.218;6.548;2022-08-21T16:46:44;13.27;;;3.17;;
51915;SDS011;37942;53.218;6.548;2022-08-21T16:49:10;12.93;;;3.38;;
51915;SDS011;37942;53.218;6.548;2022-08-21T16:51:36;11.63;;;3.20;;
51915;SDS011;37942;53.218;6.548;2022-08-21T16:54:03;10.45;;;3.22;;
51915;SDS011;37942;53.218;6.548;2022-08-21T16:56:29;12.43;;;2.72;;
51915;SDS011;37942;53.218;6.548;2022-08-21T16:58:55;13.98;;;3.28;;
51915;SDS011;37942;53.218;6.548;2022-08-21T17:01:24;15.55;;;3.35;;
51915;SDS011;37942;53.218;6.548;2022-08-21T17:03:51;14.10;;;3.08;;
51915;SDS011;37942;53.218;6.548;2022-08-21T17:06:18;11.30;;;3.22;;
51915;SDS011;37942;53.218;6.548;2022-08-21T17:08:44;14.90;;;3.65;;
51915;SDS011;37942;53.218;6.548;2022-08-21T17:11:13;13.30;;;3.67;;
51915;SDS011;37942;53.218;6.548;2022-08-21T17:13:41;14.65;;;3.47;;
51915;SDS011;37942;53.218;6.548;2022-08-21T17:16:07;15.43;;;3.42;;
51915;SDS011;37942;53.218;6.548;2022-08-21T17:20:59;16.00;;;3.10;;
51915;SDS011;37942;53.218;6.548;2022-08-21T17:23:28;14.88;;;3.42;;
51915;SDS011;37942;53.218;6.548;2022-08-21T17:28:24;12.05;;;3.40;;
51915;SDS011;37942;53.218;6.548;2022-08-21T17:30:53;16.98;;;3.40;;
51915;SDS011;37942;53.218;6.548;2022-08-21T17:33:20;12.32;;;3.28;;